This is the latest recevied weather packets stored in our database for station/object SP8AQK-13. If no packets are shown the sender has not sent any weather packets the latest 10 day(s).
| Time | Temp. | Humidity | Pressure | Rain* | Wind** | Luminosity | Snow |
|---|---|---|---|---|---|---|---|
| 1777435439 | 1.11° C | 81% | 1027.2 hPa | - | - | - | - |
| 1777434238 | 1.11° C | 85% | 1027.3 hPa | - | - | - | - |
| 1777433037 | 0.56° C | 86% | 1027.4 hPa | - | - | - | - |
| 1777431837 | 0.56° C | 85% | 1027.3 hPa | - | - | - | - |
| 1777428235 | 0° C | 83% | 1027.3 hPa | - | - | - | - |
| 1777423432 | -1.11° C | 83% | 1027.3 hPa | - | - | - | - |
| 1777413826 | 0.56° C | 75% | 1027.2 hPa | - | - | - | - |
| 1777407823 | 1.67° C | 69% | 1026.8 hPa | - | - | - | - |
| 1777406622 | 1.67° C | 69% | 1026.6 hPa | - | - | - | - |
| 1777399418 | 6.67° C | 49% | 1025.5 hPa | - | - | - | - |
| 1777377804 | 13.89° C | 27% | 1024.9 hPa | - | - | - | - |
| 1777376604 | 13.89° C | 27% | 1024.9 hPa | - | - | - | - |
| 1777373002 | 13.89° C | 28% | 1025.2 hPa | - | - | - | - |
| 1777371801 | 13.33° C | 28% | 1025 hPa | - | - | - | - |
| 1777370600 | 13.89° C | 30% | 1025.2 hPa | - | - | - | - |
| 1777365797 | 12.22° C | 36% | 1025.4 hPa | - | - | - | - |
| 1777364596 | 11.67° C | 36% | 1025.7 hPa | - | - | - | - |
| 1777363395 | 11.11° C | 42% | 1025.8 hPa | - | - | - | - |
| 1777362195 | 11.11° C | 41% | 1025.7 hPa | - | - | - | - |
| 1777360994 | 10.56° C | 43% | 1025.8 hPa | - | - | - | - |
| 1777357392 | 7.78° C | 53% | 1025.8 hPa | - | - | - | - |
| 1777356191 | 6.67° C | 56% | 1025.7 hPa | - | - | - | - |
| 1777353790 | 4.44° C | 66% | 1025.7 hPa | - | - | - | - |
| 1777352589 | 2.78° C | 71% | 1025.8 hPa | - | - | - | - |
| 1777350187 | 1.11° C | 86% | 1025.6 hPa | - | - | - | - |
* Rain since midnight (hover to see other rain measurements)
** Current wind speed in m/s (hover to see current wind gust speed)